Terminal Aerodrome Forecast
Issued by NWS Louisville, KY

Home | Current Version | Previous Version | Text Only | Print | Product List | Glossary On
Versions: 1 2 3 4 5 6 7 8 9 10 11 12 13 14 15 16 17 18 19 20
000
FTUS43 KLMK 251100
TAFLEX
TAF
KLEX 251121Z 2512/2612 19008KT P6SM BKN150
     FM252000 19012KT P6SM VCSH BKN050
     FM252200 18007KT 5SM -SHRA BR BKN025
     FM260100 VRB06KT 4SM -SHRA BR BKN008
     FM260800 34013G20KT 4SM -RASN BKN012
     FM261100 34010G17KT P6SM BKN018=

USA.gov is the U.S. government's official web portal to all federal, state and local government web resources and services.